Time;durP1;ratioP1;P1;durP2;ratioP2;P2;SDS_P1;SDS_P2;PMS_P1;PMS_P2;Temp;Humidity;BMP_temperature;BMP_pressure;BME280_temperature;BME280_humidity;BME280_pressure;Samples;Min_cycle;Max_cycle;Signal;HPM_P1;HPM_P2
2024/04/07 00:01:27;;;;;;;2.60;1.27;;;;;;;17.25;100.00;98877.13;5007945;28;20041;-75
2024/04/07 00:03:52;;;;;;;2.10;1.80;;;;;;;17.26;100.00;98858.00;5005901;28;20416;-75
2024/04/07 00:06:17;;;;;;;2.47;1.53;;;;;;;17.21;100.00;98830.97;4994453;28;20026;-75
2024/04/07 00:08:46;;;;;;;3.50;1.60;;;;;;;17.14;100.00;98868.13;5003015;28;20041;-75
2024/04/07 00:11:11;;;;;;;4.72;2.47;;;;;;;17.06;100.00;98863.94;4994235;28;20037;-75
2024/04/07 00:13:37;;;;;;;5.78;1.55;;;;;;;16.99;100.00;98867.91;4994929;28;20412;-75
2024/04/07 00:16:02;;;;;;;6.00;2.13;;;;;;;17.06;100.00;98863.94;5007033;28;20476;-75
2024/04/07 00:18:28;;;;;;;4.65;1.48;;;;;;;16.94;100.00;98840.91;4993367;28;20795;-75
2024/04/07 00:21:04;;;;;;;2.93;1.50;;;;;;;16.96;100.00;98865.72;4979702;28;20026;-75
2024/04/07 00:23:30;;;;;;;4.88;1.52;;;;;;;16.82;100.00;98827.53;5007174;28;20038;-75
2024/04/07 00:25:56;;;;;;;5.90;1.40;;;;;;;16.74;100.00;98847.63;5005575;28;20030;-74
2024/04/07 00:28:22;;;;;;;4.80;1.60;;;;;;;16.72;100.00;98859.72;4999719;28;20705;-75
2024/04/07 00:30:48;;;;;;;3.75;1.95;;;;;;;16.71;100.00;98896.59;5005434;28;20140;-75
2024/04/07 00:33:14;;;;;;;4.03;1.73;;;;;;;16.58;100.00;98967.00;5005770;28;20113;-75
2024/04/07 00:35:41;;;;;;;2.58;1.45;;;;;;;16.38;100.00;99137.16;5005195;28;20384;-75
2024/04/07 00:38:06;;;;;;;3.15;1.90;;;;;;;16.13;100.00;99261.28;5002124;28;20117;-75
2024/04/07 00:40:31;;;;;;;2.47;1.40;;;;;;;16.12;100.00;99308.94;5000187;28;20053;-75
2024/04/07 00:42:57;;;;;;;4.87;1.53;;;;;;;16.14;100.00;99370.63;4998124;28;20093;-75
2024/04/07 00:45:23;;;;;;;7.13;1.70;;;;;;;16.03;100.00;99224.19;4993833;28;20062;-75
2024/04/07 00:47:48;;;;;;;;;;;;;;;16.16;100.00;99134.31;4990965;28;20089;-75
2024/04/07 00:50:18;;;;;;;4.43;1.67;;;;;;;16.24;100.00;99063.91;5001627;28;19913;-75
2024/04/07 00:52:44;;;;;;;4.95;1.70;;;;;;;16.38;100.00;99003.31;5001678;28;20044;-75
2024/04/07 00:55:10;;;;;;;4.78;1.90;;;;;;;16.46;100.00;98940.16;5006151;28;20113;-75
2024/04/07 00:57:37;;;;;;;4.93;1.60;;;;;;;16.60;100.00;98881.34;5005244;28;20041;-75
2024/04/07 01:00:03;;;;;;;2.50;1.48;;;;;;;16.71;100.00;98836.53;4996023;28;20041;-75
2024/04/07 01:02:29;;;;;;;4.63;2.10;;;;;;;16.76;100.00;98780.81;4987373;28;20034;-75
2024/04/07 01:04:54;;;;;;;3.60;1.90;;;;;;;16.77;100.00;98746.63;4987471;28;20525;-75
2024/04/07 01:07:21;;;;;;;4.82;1.77;;;;;;;16.77;100.00;98704.31;4986974;28;20057;-75
2024/04/07 01:09:47;;;;;;;3.90;2.20;;;;;;;16.74;100.00;98701.28;4979873;28;20039;-74
2024/04/07 01:12:13;;;;;;;2.08;1.48;;;;;;;16.80;100.00;98684.97;5006857;28;20122;-74
2024/04/07 01:14:38;;;;;;;;;;;;;;;16.82;100.00;98671.25;4997192;28;20076;-74
2024/04/07 01:17:06;;;;;;;2.67;1.70;;;;;;;16.85;100.00;98708.44;4996603;28;19956;-75
2024/04/07 01:19:35;;;;;;;4.70;1.60;;;;;;;16.54;100.00;98691.91;5020587;28;20388;-74
2024/04/07 01:22:00;;;;;;;4.18;1.73;;;;;;;16.42;100.00;98807.84;5005039;28;20092;-75
2024/04/07 01:24:27;;;;;;;2.17;1.75;;;;;;;16.20;100.00;98893.13;5004485;28;20037;-75
2024/04/07 01:26:52;;;;;;;;;;;;;;;16.16;100.00;99016.66;5006154;28;20365;-75
2024/04/07 01:29:17;;;;;;;4.65;2.35;;;;;;;16.03;100.00;99098.50;5004884;28;19940;-76
2024/04/07 01:31:43;;;;;;;5.23;1.57;;;;;;;15.99;100.00;99183.50;5006128;28;20042;-75
2024/04/07 01:34:08;;;;;;;2.63;1.80;;;;;;;15.89;100.00;99242.44;5004676;28;20285;-76
2024/04/07 01:36:34;;;;;;;4.83;1.73;;;;;;;15.85;100.00;99340.03;4999727;28;20073;-75
2024/04/07 01:38:59;;;;;;;4.10;1.90;;;;;;;15.78;100.00;99340.13;5019917;28;20045;-75
2024/04/07 01:41:24;;;;;;;4.57;1.85;;;;;;;15.79;100.00;99347.97;5005071;28;20037;-75
2024/04/07 01:43:50;;;;;;;4.00;2.60;;;;;;;15.82;100.00;99317.91;5004268;28;20041;-75
2024/04/07 01:46:15;;;;;;;7.20;3.00;;;;;;;15.92;100.00;99292.28;5004753;28;20284;-75
2024/04/07 01:48:41;;;;;;;8.13;2.17;;;;;;;15.94;100.00;99269.47;5004639;28;20048;-75
2024/04/07 01:51:07;;;;;;;9.63;1.90;;;;;;;15.99;100.00;99282.22;4986915;28;20277;-75
2024/04/07 01:53:33;;;;;;;3.13;1.50;;;;;;;15.93;100.00;99251.69;4985836;28;20109;-75
2024/04/07 01:55:59;;;;;;;8.75;2.00;;;;;;;16.12;100.00;99205.81;5001904;28;20126;-75
2024/04/07 01:58:24;;;;;;;4.32;2.13;;;;;;;15.87;100.00;99158.44;5004540;28;20042;-75
2024/04/07 02:00:50;;;;;;;6.72;1.90;;;;;;;16.02;100.00;99249.50;5005496;28;20038;-75
2024/04/07 02:03:16;;;;;;;4.23;2.07;;;;;;;16.02;100.00;99207.22;5003735;28;20072;-75
2024/04/07 02:05:41;;;;;;;3.97;1.88;;;;;;;15.75;100.00;99206.06;4992776;28;20541;-75
2024/04/07 02:08:07;;;;;;;3.72;1.45;;;;;;;15.69;100.00;99288.50;5009280;28;20041;-75
2024/04/07 02:10:32;;;;;;;4.90;2.25;;;;;;;15.62;100.00;99295.88;5009336;28;20100;-75
2024/04/07 02:12:58;;;;;;;3.57;1.87;;;;;;;15.59;100.00;99299.00;5022627;28;20117;-75
2024/04/07 02:15:24;;;;;;;7.38;2.08;;;;;;;15.57;100.00;99326.16;4993606;28;20597;-75
2024/04/07 02:17:50;;;;;;;;;;;;;;;15.45;100.00;99427.47;5008525;28;20034;-75
2024/04/07 02:20:16;;;;;;;5.35;2.55;;;;;;;15.30;100.00;99456.63;4999828;28;20327;-74
2024/04/07 02:22:42;;;;;;;;;;;;;;;15.19;100.00;99550.44;5009827;28;20033;-75
2024/04/07 02:25:07;;;;;;;4.35;1.90;;;;;;;15.10;100.00;99639.63;5007425;28;20339;-75
2024/04/07 02:27:32;;;;;;;4.03;1.77;;;;;;;14.89;100.00;99681.97;5029031;22;20031;-74
2024/04/07 02:29:58;;;;;;;7.77;2.20;;;;;;;14.77;100.00;99766.97;5046027;28;20430;-74
2024/04/07 02:32:23;;;;;;;3.43;2.10;;;;;;;14.58;100.00;99760.66;5050851;28;20036;-74
2024/04/07 02:34:48;;;;;;;3.73;2.40;;;;;;;14.48;100.00;99803.22;5056681;28;20055;-75
2024/04/07 02:37:14;;;;;;;4.40;2.33;;;;;;;14.50;100.00;99817.25;5049483;28;20032;-75
2024/04/07 02:39:39;;;;;;;3.43;2.13;;;;;;;14.41;100.00;99822.03;5058671;28;20043;-75
2024/04/07 02:42:04;;;;;;;2.77;1.97;;;;;;;14.31;100.00;99843.94;5063311;28;20032;-75
2024/04/07 02:49:58;;;;;;;7.88;2.70;;;;;;;14.52;100.00;99799.91;5056460;28;20101;-74
2024/04/07 02:52:23;;;;;;;4.80;1.93;;;;;;;14.73;100.00;99636.81;5059111;28;20103;-75
2024/04/07 02:54:49;;;;;;;4.80;2.40;;;;;;;15.38;100.00;99336.16;5040457;28;20170;-74
2024/04/07 02:57:14;;;;;;;2.85;2.05;;;;;;;15.55;100.00;99174.13;5045439;28;20104;-74
2024/04/07 02:59:40;;;;;;;2.60;1.93;;;;;;;15.48;100.00;99116.94;5052694;28;20029;-74
2024/04/07 03:02:05;;;;;;;6.00;2.27;;;;;;;15.62;100.00;99089.56;5058063;28;20040;-76
2024/04/07 03:04:30;;;;;;;3.80;2.58;;;;;;;15.67;100.00;98983.94;5052588;28;20040;-74
2024/04/07 03:07:00;;;;;;;3.87;2.40;;;;;;;15.70;100.00;98928.81;5047650;28;20544;-75
2024/04/07 03:09:26;;;;;;;7.13;2.13;;;;;;;15.78;100.00;98923.06;5028861;28;20439;-73
2024/04/07 03:11:51;;;;;;;3.70;2.00;;;;;;;15.82;100.00;98891.94;5046746;28;20045;-72
2024/04/07 03:14:16;;;;;;;8.07;1.93;;;;;;;15.75;100.00;98867.88;5046569;28;20029;-72
2024/04/07 03:16:42;;;;;;;3.60;2.03;;;;;;;15.76;100.00;98825.66;5036899;28;20029;-74
2024/04/07 03:19:07;;;;;;;3.30;1.73;;;;;;;15.79;100.00;98814.41;5050821;28;20398;-75
2024/04/07 03:21:32;;;;;;;4.63;2.23;;;;;;;15.85;100.00;98805.38;5042321;28;20037;-74
2024/04/07 03:23:58;;;;;;;3.50;2.10;;;;;;;15.88;100.00;98777.16;5052498;28;20043;-74
2024/04/07 03:26:23;;;;;;;3.03;2.07;;;;;;;15.94;100.00;98762.72;5067535;28;20031;-75
2024/04/07 03:28:48;;;;;;;5.43;1.87;;;;;;;15.94;100.00;98730.41;5057443;28;20044;-75
2024/04/07 03:31:14;;;;;;;2.87;2.17;;;;;;;15.95;100.00;98711.34;5057277;28;20027;-74
2024/04/07 03:33:39;;;;;;;2.83;1.90;;;;;;;15.95;100.00;98732.88;5049424;28;20458;-74
2024/04/07 03:36:05;;;;;;;3.47;2.50;;;;;;;15.97;100.00;98735.31;5050916;28;20045;-75
2024/04/07 03:38:31;;;;;;;2.25;1.75;;;;;;;15.98;100.00;98724.28;5047565;28;20117;-75
2024/04/07 03:40:56;;;;;;;4.28;1.80;;;;;;;16.00;100.00;98705.22;5046168;28;20590;-72
2024/04/07 03:43:22;;;;;;;3.85;1.60;;;;;;;15.95;100.00;98703.28;5057915;28;20036;-74
2024/04/07 03:45:48;;;;;;;3.37;1.83;;;;;;;15.96;100.00;98696.81;5047143;28;20044;-74
2024/04/07 03:48:14;;;;;;;3.22;1.92;;;;;;;16.06;100.00;98693.47;5060494;28;20090;-75
2024/04/07 03:50:41;;;;;;;5.68;1.90;;;;;;;16.14;100.00;98657.22;5047853;28;20132;-74
2024/04/07 03:53:06;;;;;;;2.80;1.73;;;;;;;16.09;100.00;98624.88;5046217;28;20111;-73
2024/04/07 03:55:31;;;;;;;2.80;1.60;;;;;;;16.08;100.00;98636.69;5040607;28;20036;-72
2024/04/07 03:57:57;;;;;;;3.57;1.53;;;;;;;16.06;100.00;98631.56;5047756;28;20102;-75
2024/04/07 04:00:22;;;;;;;2.60;2.07;;;;;;;16.09;100.00;98635.63;5060818;28;20634;-75
2024/04/07 04:02:50;;;;;;;4.00;2.17;;;;;;;16.04;100.00;98622.94;5054919;28;20056;-75
2024/04/07 04:05:21;;;;;;;2.83;1.25;;;;;;;16.02;100.00;98638.50;5058481;28;20267;-73
2024/04/07 04:07:48;;;;;;;1.63;1.50;;;;;;;16.07;100.00;98713.13;5041205;28;20094;-73
2024/04/07 04:10:13;;;;;;;2.88;1.90;;;;;;;15.94;100.00;98676.59;5047015;28;20032;-74
2024/04/07 04:12:39;;;;;;;2.27;1.60;;;;;;;15.80;100.00;98794.50;5051419;28;20119;-74
2024/04/07 04:15:05;;;;;;;2.83;2.13;;;;;;;15.60;100.00;98903.38;5045298;28;20733;-72
2024/04/07 04:17:31;;;;;;;2.28;1.50;;;;;;;15.42;100.00;99029.94;5044620;28;20105;-75
2024/04/07 04:19:56;;;;;;;3.80;1.77;;;;;;;15.16;100.00;99152.19;5047428;28;20087;-75
2024/04/07 04:22:22;;;;;;;3.77;1.97;;;;;;;14.98;100.00;99233.69;5039069;28;20032;-75
2024/04/07 04:24:47;;;;;;;3.87;1.80;;;;;;;14.87;100.00;99350.03;5065055;28;20040;-73
2024/04/07 04:27:12;;;;;;;3.93;2.10;;;;;;;14.71;100.00;99434.72;5065587;28;20028;-72
2024/04/07 04:29:38;;;;;;;4.63;2.03;;;;;;;14.61;100.00;99499.69;5064875;28;20044;-74
2024/04/07 04:32:04;;;;;;;2.10;1.85;;;;;;;14.59;100.00;99482.97;5063383;28;20033;-74
2024/04/07 04:34:33;;;;;;;3.60;1.80;;;;;;;14.54;100.00;99451.41;5063250;28;20063;-73
2024/04/07 04:36:59;;;;;;;3.22;1.90;;;;;;;14.51;100.00;99480.50;5060791;28;20119;-74
2024/04/07 04:39:24;;;;;;;3.30;1.87;;;;;;;14.44;100.00;99461.75;5063155;28;20115;-74
2024/04/07 04:41:50;;;;;;;3.63;2.00;;;;;;;14.51;100.00;99449.09;5061903;28;20106;-73
2024/04/07 04:44:16;;;;;;;6.93;2.43;;;;;;;14.59;100.00;99492.91;5062234;28;20036;-74
2024/04/07 04:46:44;;;;;;;2.22;1.50;;;;;;;14.55;100.00;99532.78;5057324;28;20287;-73
2024/04/07 04:49:10;;;;;;;3.30;1.67;;;;;;;14.53;100.00;99502.59;5062446;28;20387;-74
2024/04/07 04:51:36;;;;;;;;;;;;;;;14.56;100.00;99486.06;5063778;28;20039;-75
2024/04/07 04:54:02;;;;;;;3.80;2.10;;;;;;;14.57;100.00;99569.13;5060360;28;19916;-72
2024/04/07 04:56:28;;;;;;;2.47;1.85;;;;;;;14.68;100.00;99451.25;5063081;28;20032;-74
2024/04/07 04:58:54;;;;;;;4.15;2.03;;;;;;;14.70;100.00;99502.91;5063681;28;20054;-74
2024/04/07 05:01:19;;;;;;;5.07;2.08;;;;;;;14.70;100.00;99519.88;5061735;28;20086;-75
2024/04/07 05:03:45;;;;;;;3.25;1.80;;;;;;;14.64;100.00;99518.06;5064155;28;20032;-75
2024/04/07 05:06:12;;;;;;;4.07;2.05;;;;;;;14.60;100.00;99479.22;5061439;28;20036;-75
2024/04/07 05:08:41;;;;;;;5.38;1.75;;;;;;;14.56;100.00;99435.03;5057243;28;20072;-74
2024/04/07 05:11:07;;;;;;;6.40;2.05;;;;;;;14.56;100.00;99452.00;5062575;28;20035;-72
2024/04/07 05:13:33;;;;;;;5.90;1.75;;;;;;;14.90;100.00;99293.97;5039339;28;20048;-75
2024/04/07 05:16:00;;;;;;;8.55;2.00;;;;;;;15.17;100.00;99285.53;5058339;28;20041;-75
2024/04/07 05:18:29;;;;;;;4.07;1.63;;;;;;;15.44;100.00;99286.00;5062620;28;20032;-75
2024/04/07 05:20:57;;;;;;;7.53;2.10;;;;;;;15.59;100.00;99281.00;5062802;28;20586;-75
2024/04/07 05:23:24;;;;;;;6.45;2.13;;;;;;;15.63;100.00;99290.25;5062254;28;20024;-75
2024/04/07 05:25:50;;;;;;;3.97;1.60;;;;;;;15.56;100.00;99335.25;5062563;28;20032;-75
2024/04/07 05:28:16;;;;;;;3.83;1.77;;;;;;;15.54;100.00;99412.66;5063492;28;20680;-72
2024/04/07 05:30:42;;;;;;;5.22;1.50;;;;;;;15.50;100.00;99446.47;5063569;28;20049;-74
2024/04/07 05:33:07;;;;;;;5.23;1.80;;;;;;;15.55;100.00;99465.44;5062541;28;20388;-74
2024/04/07 05:35:33;;;;;;;9.03;2.07;;;;;;;15.53;100.00;99509.75;5040109;28;20064;-75
2024/04/07 05:38:00;;;;;;;4.57;1.67;;;;;;;15.47;100.00;99562.53;5063425;28;20282;-74
2024/04/07 05:40:25;;;;;;;3.85;1.48;;;;;;;15.36;100.00;99496.09;5053539;28;20262;-74
2024/04/07 05:42:51;;;;;;;2.90;0.67;;;;;;;15.29;100.00;99465.72;5052143;28;20058;-74
2024/04/07 05:45:17;;;;;;;1.95;0.75;;;;;;;15.37;100.00;99495.03;5071017;28;20286;-73
2024/04/07 05:47:48;;;;;;;2.80;0.77;;;;;;;15.53;100.00;99502.50;5068612;28;20040;-74
2024/04/07 05:50:13;;;;;;;2.40;0.70;;;;;;;15.47;100.00;99561.72;5069166;28;20032;-74
2024/04/07 05:52:40;;;;;;;3.23;0.80;;;;;;;15.35;100.00;99543.63;5054276;28;20090;-74
2024/04/07 05:55:08;;;;;;;2.67;0.70;;;;;;;15.29;100.00;99592.94;5069204;28;20044;-74
2024/04/07 05:57:35;;;;;;;2.38;0.65;;;;;;;15.32;100.00;99626.63;5061459;28;20032;-75
2024/04/07 06:00:01;;;;;;;3.38;0.90;;;;;;;15.30;100.00;99661.81;5069099;28;20307;-75
2024/04/07 06:02:27;;;;;;;3.03;1.02;;;;;;;15.47;100.00;99729.31;5045767;28;20462;-72
2024/04/07 06:04:52;;;;;;;2.00;0.73;;;;;;;15.44;100.00;99745.91;5059953;28;20581;-75
2024/04/07 06:07:17;;;;;;;4.50;1.40;;;;;;;15.47;100.00;99774.22;5064147;28;20392;-74
2024/04/07 06:09:47;;;;;;;4.23;1.20;;;;;;;15.40;100.00;99791.25;5050429;28;20067;-74
2024/04/07 06:12:12;;;;;;;3.40;1.13;;;;;;;15.38;100.00;99805.94;5058976;28;20036;-75
2024/04/07 06:14:38;;;;;;;2.23;0.80;;;;;;;15.23;100.00;99757.00;5066966;28;20031;-75
2024/04/07 06:17:04;;;;;;;1.07;0.77;;;;;;;15.33;100.00;99857.66;5025158;28;20037;-72
2024/04/07 06:19:29;;;;;;;1.75;0.80;;;;;;;15.27;100.00;99812.00;5051642;28;20028;-74
2024/04/07 06:21:54;;;;;;;5.30;1.63;;;;;;;15.35;100.00;99825.19;5063113;28;20046;-75
2024/04/07 06:24:20;;;;;;;4.40;0.70;;;;;;;15.39;100.00;99821.84;5055368;28;20025;-75
2024/04/07 06:26:45;;;;;;;3.33;0.73;;;;;;;15.38;100.00;99828.28;5070939;28;20676;-73
2024/04/07 06:29:10;;;;;;;0.90;0.57;;;;;;;15.41;100.00;99846.66;5051790;28;20043;-75
2024/04/07 06:31:36;;;;;;;1.77;0.40;;;;;;;15.45;100.00;99847.03;5071723;28;20035;-74
2024/04/07 06:34:01;;;;;;;3.00;0.80;;;;;;;15.21;100.00;99797.56;5066092;28;20051;-73
2024/04/07 06:36:29;;;;;;;1.55;0.63;;;;;;;15.28;100.00;99862.06;5061647;28;20032;-75
2024/04/07 06:38:54;;;;;;;1.17;0.60;;;;;;;15.04;100.00;99845.63;5063825;28;20052;-74
2024/04/07 06:41:19;;;;;;;1.58;0.65;;;;;;;15.16;100.00;99961.38;5071517;28;20753;-74
2024/04/07 06:43:45;;;;;;;2.37;1.07;;;;;;;15.10;100.00;99979.19;5067613;28;20119;-75
2024/04/07 06:46:10;;;;;;;3.10;0.98;;;;;;;15.11;100.00;100026.53;5066067;28;20059;-75
2024/04/07 06:48:36;;;;;;;4.83;0.70;;;;;;;15.11;100.00;100061.47;5066548;28;20041;-72
2024/04/07 06:51:01;;;;;;;3.33;0.82;;;;;;;15.25;100.00;100099.13;5043329;28;20124;-71
2024/04/07 06:53:27;;;;;;;2.35;0.68;;;;;;;15.11;100.00;100006.91;5058118;28;20517;-73
2024/04/07 06:55:52;;;;;;;1.90;0.40;;;;;;;15.15;100.00;100040.41;5061806;28;20032;-74
2024/04/07 06:58:18;;;;;;;2.60;0.40;;;;;;;15.18;100.00;100030.03;5047848;28;20040;-73
2024/04/07 07:00:43;;;;;;;1.53;0.63;;;;;;;15.10;100.00;99922.75;5062347;28;20028;-75
2024/04/07 07:03:09;;;;;;;2.28;0.65;;;;;;;15.32;100.00;100063.09;5062617;28;20037;-77
2024/04/07 07:05:34;;;;;;;2.97;0.38;;;;;;;15.36;100.00;100004.34;5066875;28;20044;-74
2024/04/07 07:08:00;;;;;;;1.50;0.40;;;;;;;15.25;100.00;99987.00;5043863;28;20056;-75
2024/04/07 07:10:25;;;;;;;3.00;0.40;;;;;;;15.29;100.00;100009.75;5066329;28;20028;-74
2024/04/07 07:12:50;;;;;;;2.83;0.50;;;;;;;15.10;100.00;99968.44;5064809;28;20888;-76
2024/04/07 07:15:16;;;;;;;2.17;0.90;;;;;;;15.46;100.00;100166.13;5063301;28;20047;-74
2024/04/07 07:17:41;;;;;;;4.28;0.63;;;;;;;15.75;100.00;100175.63;5063590;28;20039;-72
2024/04/07 07:20:07;;;;;;;3.33;0.93;;;;;;;16.14;100.00;100162.25;5061952;28;20044;-73
2024/04/07 07:22:32;;;;;;;3.15;0.85;;;;;;;15.96;100.00;99977.19;5065181;28;20056;-74
2024/04/07 07:24:58;;;;;;;2.10;0.63;;;;;;;15.99;100.00;99931.81;5062602;28;20032;-75
2024/04/07 07:27:23;;;;;;;0.67;0.50;;;;;;;16.11;100.00;99936.50;5065398;28;20036;-75
2024/04/07 07:29:48;;;;;;;2.37;0.60;;;;;;;16.04;100.00;99941.94;5062913;28;20040;-73
2024/04/07 07:32:15;;;;;;;0.77;0.43;;;;;;;15.97;100.00;99998.50;5063109;28;20028;-75
2024/04/07 07:34:40;;;;;;;;;;;;;;;16.05;100.00;99975.88;5047018;28;20874;-73
2024/04/07 07:37:05;;;;;;;4.75;1.15;;;;;;;15.95;100.00;99930.59;5065235;28;19971;-72
2024/04/07 07:39:31;;;;;;;1.37;0.50;;;;;;;15.61;100.00;99851.91;5065822;28;20047;-72
2024/04/07 07:41:56;;;;;;;3.73;0.60;;;;;;;16.02;100.00;99981.72;5047323;28;20064;-72
2024/04/07 07:44:22;;;;;;;2.10;0.35;;;;;;;16.11;100.00;99995.72;5065139;28;20133;-76
2024/04/07 07:46:47;;;;;;;1.00;0.60;;;;;;;16.21;100.00;99999.59;5056200;28;20115;-77
2024/04/07 07:49:13;;;;;;;2.30;0.60;;;;;;;16.31;100.00;100058.38;5062937;28;20043;-74
2024/04/07 07:51:38;;;;;;;5.33;0.97;;;;;;;16.26;100.00;100042.03;5065915;28;20052;-75
2024/04/07 07:54:04;;;;;;;3.97;0.60;;;;;;;16.33;100.00;100040.13;5057559;28;20047;-75
2024/04/07 07:56:29;;;;;;;0.70;0.40;;;;;;;16.44;100.00;100120.25;5061072;28;20067;-74
2024/04/07 07:58:54;;;;;;;1.47;0.50;;;;;;;16.47;100.00;100159.41;5065894;28;20078;-73
2024/04/07 08:01:20;;;;;;;3.37;0.47;;;;;;;16.44;100.00;100144.50;5062599;28;20031;-77
2024/04/07 08:03:45;;;;;;;2.20;0.50;;;;;;;16.67;100.00;100165.53;5060881;28;20115;-77
2024/04/07 08:06:10;;;;;;;2.20;0.83;;;;;;;16.61;100.00;100157.47;5061353;28;20037;-75
2024/04/07 08:08:37;;;;;;;2.80;0.40;;;;;;;16.42;100.00;100149.28;5061436;28;20074;-72
2024/04/07 08:11:03;;;;;;;;;;;;;;;16.29;100.00;100210.47;5063886;28;20033;-75
2024/04/07 08:13:28;;;;;;;2.08;0.40;;;;;;;15.99;100.00;100139.13;5062267;28;19919;-75
2024/04/07 08:15:53;;;;;;;2.37;0.60;;;;;;;15.76;100.00;100241.88;5063413;28;20036;-75
2024/04/07 08:18:19;;;;;;;3.83;0.80;;;;;;;15.70;100.00;100350.34;5065475;28;20064;-73
2024/04/07 08:20:44;;;;;;;4.32;0.50;;;;;;;15.47;100.00;100404.50;5062634;28;20554;-74
2024/04/07 08:23:11;;;;;;;2.40;0.60;;;;;;;15.58;100.00;100385.06;5054691;28;20040;-75
2024/04/07 08:25:37;;;;;;;3.25;0.60;;;;;;;15.64;100.00;100426.50;5046003;28;20048;-74
2024/04/07 08:30:38;;;;;;;1.10;0.50;;;;;;;15.54;100.00;100428.72;4989951;28;20050;-75
2024/04/07 08:33:04;;;;;;;1.75;0.57;;;;;;;15.24;100.00;100347.53;4998779;28;20370;-75
2024/04/07 08:35:29;;;;;;;3.30;0.45;;;;;;;15.35;100.00;100379.22;5004860;28;20092;-73
2024/04/07 08:37:54;;;;;;;2.63;1.10;;;;;;;15.60;100.00;100452.16;4979310;28;20222;-73
2024/04/07 08:40:20;;;;;;;1.17;0.60;;;;;;;15.84;100.00;100442.69;5000974;28;20065;-73
2024/04/07 08:42:46;;;;;;;4.50;0.57;;;;;;;15.75;100.00;100250.16;5000347;28;20069;-75
2024/04/07 08:45:12;;;;;;;4.85;0.60;;;;;;;15.92;100.00;100278.31;4987634;28;20475;-78
2024/04/07 08:47:38;;;;;;;4.93;0.60;;;;;;;15.96;100.00;100231.06;4999094;28;20037;-74
2024/04/07 08:50:05;;;;;;;3.22;0.70;;;;;;;15.75;100.00;100204.41;4996061;28;20033;-74
2024/04/07 08:52:31;;;;;;;1.52;0.35;;;;;;;15.73;100.00;100257.59;4999771;28;20037;-75
2024/04/07 08:54:58;;;;;;;0.95;0.45;;;;;;;15.93;100.00;100150.72;4996280;28;20038;-74
2024/04/07 08:57:23;;;;;;;;;;;;;;;16.31;100.00;100133.78;4996741;28;20493;-73
2024/04/07 08:59:51;;;;;;;1.33;0.30;;;;;;;16.72;100.00;100132.53;4995508;28;19941;-73
2024/04/07 09:02:17;;;;;;;1.13;0.50;;;;;;;17.01;100.00;100049.38;4988526;28;20740;-76
2024/04/07 09:04:43;;;;;;;2.17;0.63;;;;;;;17.35;100.00;99894.22;5005541;28;20040;-74
2024/04/07 09:07:10;;;;;;;1.52;0.50;;;;;;;17.44;100.00;99848.84;5007183;28;20457;-74
2024/04/07 09:09:36;;;;;;;1.13;0.50;;;;;;;17.00;100.00;99632.50;5005443;28;20404;-73
2024/04/07 09:12:03;;;;;;;3.28;0.70;;;;;;;16.97;100.00;99673.38;5005414;28;20064;-76
2024/04/07 09:14:32;;;;;;;1.60;0.45;;;;;;;17.26;100.00;99655.53;5006697;28;20400;-74
2024/04/07 09:17:06;;;;;;;1.05;0.50;;;;;;;17.54;100.00;99635.94;5005684;28;20049;-73
2024/04/07 09:19:33;;;;;;;5.55;0.60;;;;;;;18.09;100.00;99610.41;5006991;28;20045;-73
2024/04/07 09:21:59;;;;;;;2.95;0.80;;;;;;;17.67;100.00;99259.72;5006658;28;20064;-74
2024/04/07 09:24:25;;;;;;;6.38;0.80;;;;;;;18.66;100.00;99591.50;4976913;28;20056;-76
2024/04/07 09:26:52;;;;;;;2.05;0.75;;;;;;;19.70;100.00;99388.97;5007096;28;20048;-77
2024/04/07 09:29:18;;;;;;;2.28;0.85;;;;;;;19.71;100.00;99130.69;5006365;28;20042;-74
2024/04/07 09:31:43;;;;;;;2.20;0.50;;;;;;;19.60;100.00;99032.34;4987895;28;20448;-74
2024/04/07 09:34:10;;;;;;;1.30;0.60;;;;;;;18.24;100.00;98818.44;4997222;28;20289;-74
2024/04/07 09:36:35;;;;;;;2.85;0.60;;;;;;;18.70;100.00;99218.75;5005169;28;20037;-74
2024/04/07 09:39:02;;;;;;;3.00;0.80;;;;;;;19.17;100.00;99235.28;4975824;28;20038;-77
2024/04/07 09:41:29;;;;;;;;;;;;;;;18.95;100.00;99110.09;5005838;28;20040;-73
2024/04/07 09:43:55;;;;;;;1.80;0.60;;;;;;;19.67;100.00;99235.16;5005320;28;20004;-76
2024/04/07 09:46:22;;;;;;;1.98;0.60;;;;;;;20.42;96.08;99139.16;5005222;28;20984;-77
2024/04/07 09:48:50;;;;;;;2.03;0.68;;;;;;;20.41;93.24;98936.13;4985563;28;20089;-74
2024/04/07 09:51:21;;;;;;;3.03;0.75;;;;;;;20.19;92.06;98869.47;5004330;28;20117;-77
2024/04/07 09:54:11;;;;;;;2.15;0.93;;;;;;;20.60;90.74;98925.59;4988777;28;20044;-75
2024/04/07 09:56:37;;;;;;;2.10;0.63;;;;;;;21.75;87.99;98953.78;4998928;28;20045;-77
2024/04/07 09:59:04;;;;;;;;;;;;;;;20.88;86.69;98734.34;5000369;28;20117;-74
2024/04/07 10:01:29;;;;;;;1.90;0.63;;;;;;;22.35;85.42;98986.28;5002710;28;19914;-74
2024/04/07 10:03:56;;;;;;;4.47;0.68;;;;;;;21.60;81.99;98530.28;5006201;28;20034;-77
2024/04/07 10:06:22;;;;;;;4.90;0.80;;;;;;;21.18;83.67;98681.00;5006289;28;20112;-74
2024/04/07 10:08:48;;;;;;;;;;;;;;;21.75;81.59;98673.22;4989364;28;20018;-74
2024/04/07 10:11:18;;;;;;;2.05;0.60;;;;;;;22.61;80.90;98863.72;5005053;28;20380;-74
2024/04/07 10:13:44;;;;;;;2.67;0.80;;;;;;;22.43;80.03;98791.84;5005231;28;20033;-75
2024/04/07 10:16:10;;;;;;;1.85;0.88;;;;;;;22.41;75.58;98340.06;4988564;28;20041;-74
2024/04/07 10:18:40;;;;;;;1.85;0.57;;;;;;;21.07;78.00;98339.25;5004964;28;20026;-78
2024/04/07 10:21:06;;;;;;;2.10;0.77;;;;;;;20.33;78.87;98291.78;4996747;28;20515;-75
2024/04/07 10:23:35;;;;;;;;;;;;;;;20.85;79.13;98504.38;5007038;28;20038;-74
2024/04/07 10:26:03;;;;;;;2.55;1.02;;;;;;;21.68;77.63;98616.50;4991880;28;20431;-76
2024/04/07 10:28:45;;;;;;;3.10;0.55;;;;;;;22.82;75.98;98725.59;5006001;28;20034;-74
2024/04/07 10:31:10;;;;;;;3.55;0.80;;;;;;;22.43;73.13;98318.81;5008595;28;20037;-74
2024/04/07 10:33:36;;;;;;;2.90;0.70;;;;;;;23.00;72.63;98512.59;5008574;28;20041;-75
2024/04/07 10:36:08;;;;;;;2.35;0.52;;;;;;;22.85;72.00;98357.75;4981272;28;20057;-74
2024/04/07 10:38:49;;;;;;;4.45;0.80;;;;;;;22.47;70.91;98249.16;5008655;28;20092;-75
2024/04/07 10:41:33;;;;;;;4.32;1.20;;;;;;;22.79;70.19;98326.31;4986554;28;20164;-77
2024/04/07 10:44:00;;;;;;;2.70;0.73;;;;;;;22.58;70.50;98323.97;4997589;28;20041;-74
2024/04/07 10:46:26;;;;;;;2.58;1.02;;;;;;;21.89;69.78;98090.19;4999361;28;20586;-77
2024/04/07 10:48:53;;;;;;;;;;;;;;;22.46;70.83;98402.50;4990630;28;20408;-74
2024/04/07 10:51:19;;;;;;;1.45;0.77;;;;;;;22.62;69.79;98349.47;5007284;28;19913;-74
2024/04/07 10:53:57;;;;;;;;;;;;;;;22.65;70.18;98418.78;5005805;28;20045;-74
2024/04/07 10:56:22;;;;;;;4.45;0.90;;;;;;;23.05;69.72;98495.34;4992148;28;20291;-74
2024/04/07 10:58:49;;;;;;;5.07;0.98;;;;;;;23.36;69.11;98525.53;5009586;28;20083;-74
2024/04/07 11:01:15;;;;;;;7.40;1.33;;;;;;;23.44;68.30;98431.47;5008122;28;20444;-74
2024/04/07 11:03:40;;;;;;;6.57;1.13;;;;;;;23.28;68.20;98381.97;5003970;28;20045;-74
2024/04/07 11:06:07;;;;;;;6.35;1.15;;;;;;;23.70;67.41;98476.13;5005631;28;20034;-78
2024/04/07 11:08:33;;;;;;;3.00;1.10;;;;;;;23.21;66.87;98210.13;4982135;28;20507;-74
2024/04/07 11:11:02;;;;;;;3.10;1.05;;;;;;;23.71;69.06;98711.19;5009329;28;20841;-78
2024/04/07 11:13:28;;;;;;;4.95;0.95;;;;;;;23.34;68.69;98539.47;5008014;28;20067;-74
2024/04/07 11:15:54;;;;;;;;;;;;;;;22.96;66.24;98114.31;5008404;28;20018;-76
2024/04/07 11:18:21;;;;;;;2.00;0.75;;;;;;;23.73;67.77;98621.81;4984084;28;19919;-76
2024/04/07 11:20:46;;;;;;;;;;;;;;;23.53;66.13;98296.19;5000568;28;20650;-79
2024/04/07 11:23:13;;;;;;;5.03;1.50;;;;;;;22.82;69.05;98533.25;5000712;28;20008;-75
2024/04/07 11:25:41;;;;;;;3.13;1.10;;;;;;;22.50;68.92;98389.91;5006383;28;20105;-75
2024/04/07 11:28:12;;;;;;;4.53;0.98;;;;;;;22.97;68.81;98562.94;4998945;28;20042;-74
2024/04/07 11:30:48;;;;;;;1.77;0.80;;;;;;;24.35;66.80;98741.41;4961431;28;20129;-74
2024/04/07 11:33:14;;;;;;;1.27;0.65;;;;;;;24.18;66.58;98644.66;4969539;28;20042;-74